| time (UTC) | temp F | wind direction | speed MPH | gust MPH | rain 1hr in | rain 24hr in | rain mn in | humidity % | barometer mb |
| 20260508072834 | 33 | 303 | 0.0 | 0.0 | 0.00 | 0.00 | 0.00 | 94 | 1016.0 |
| 20260508072330 | 33 | 304 | 0.0 | 0.0 | 0.00 | 0.00 | 0.00 | 94 | 1016.1 |
| 20260508071828 | 34 | 304 | 0.0 | 0.0 | 0.00 | 0.00 | 0.00 | 93 | 1016.1 |
| 20260508071326 | 34 | 297 | 0.0 | 0.0 | 0.00 | 0.00 | 0.00 | 94 | 1016.0 |
| 20260508070823 | 34 | 325 | 0.0 | 0.0 | 0.00 | 0.00 | 0.00 | 93 | 1016.0 |
| 20260508070322 | 34 | 326 | 0.0 | 1.0 | 0.00 | 0.00 | 0.00 | 93 | 1016.0 |
| 20260508065819 | 34 | 307 | 0.0 | 0.0 | 0.00 | 0.00 | 0.00 | 93 | 1016.2 |
| 20260508065317 | 34 | 307 | 1.0 | 1.0 | 0.00 | 0.00 | 0.00 | 92 | 1016.3 |
| 20260508064814 | 34 | 329 | 0.0 | 0.0 | 0.00 | 0.00 | 0.00 | 91 | 1016.2 |
| 20260508064312 | 34 | 246 | 0.0 | 1.0 | 0.00 | 0.00 | 0.00 | 92 | 1016.2 |
| 20260508063809 | 35 | 340 | 0.0 | 0.0 | 0.00 | 0.00 | 0.00 | 91 | 1016.2 |
| 20260508063307 | 35 | 340 | 0.0 | 0.0 | 0.00 | 0.00 | 0.00 | 91 | 1016.6 |
| 20260508062804 | 35 | 341 | 0.0 | 0.0 | 0.00 | 0.00 | 0.00 | 90 | 1016.2 |
| 20260508062305 | 35 | 333 | 0.0 | 0.0 | 0.00 | 0.00 | 0.00 | 89 | 1016.1 |
| 20260508061758 | 36 | 281 | 0.0 | 0.0 | 0.00 | 0.00 | 0.00 | 88 | 1016.1 |
| 20260508061255 | 36 | 247 | 1.0 | 2.0 | 0.00 | 0.00 | 0.00 | 87 | 1016.1 |
| 20260508060752 | 36 | 314 | 0.0 | 1.0 | 0.00 | 0.00 | 0.00 | 86 | 1016.0 |
| 20260508060250 | 37 | 253 | 0.0 | 2.0 | 0.00 | 0.00 | 0.00 | 84 | 1016.0 |
| 20260508055745 | 36 | 344 | 0.0 | 1.0 | 0.00 | 0.00 | 0.00 | 87 | 1015.9 |
| 20260508055242 | 37 | 336 | 0.0 | 1.0 | 0.00 | 0.00 | 0.00 | 86 | 1016.0 |
| 20260508054739 | 38 | 269 | 1.0 | 1.0 | 0.00 | 0.00 | 0.00 | 84 | 1015.9 |
| 20260508054237 | 37 | 290 | 1.0 | 1.0 | 0.00 | 0.00 | 0.00 | 82 | 1016.0 |
| 20260508053734 | 38 | 256 | 0.0 | 1.0 | 0.00 | 0.00 | 0.00 | 81 | 1015.9 |
| 20260508053231 | 39 | 240 | 1.0 | 3.0 | 0.00 | 0.00 | 0.00 | 77 | 1016.0 |
| 20260508052728 | 38 | 272 | 0.0 | 1.0 | 0.00 | 0.00 | 0.00 | 82 | 1015.8 |
| 20260508052225 | 38 | 295 | 0.0 | 2.0 | 0.00 | 0.00 | 0.00 | 82 | 1015.8 |
| 20260508051721 | 38 | 268 | 0.0 | 2.0 | 0.00 | 0.00 | 0.00 | 79 | 1016.0 |
| 20260508051217 | 37 | 288 | 1.0 | 2.0 | 0.00 | 0.00 | 0.00 | 85 | 1015.9 |
| 20260508050714 | 37 | 320 | 0.0 | 1.0 | 0.00 | 0.00 | 0.00 | 86 | 1015.9 |
| 20260508050212 | 37 | 306 | 1.0 | 2.0 | 0.00 | 0.00 | 0.00 | 85 | 1016.1 |
| 20260508045711 | 38 | 343 | 1.0 | 1.0 | 0.00 | 0.00 | 0.00 | 83 | 1015.9 |
| 20260508045210 | 38 | 302 | 0.0 | 1.0 | 0.00 | 0.00 | 0.00 | 83 | 1015.8 |
| 20260508044707 | 38 | 3 | 0.0 | 1.0 | 0.00 | 0.00 | 0.00 | 82 | 1015.9 |
| 20260508044203 | 40 | 281 | 0.0 | 0.0 | 0.00 | 0.00 | 0.00 | 78 | 1015.8 |
| 20260508043659 | 41 | 239 | 0.0 | 3.0 | 0.00 | 0.00 | 0.00 | 75 | 1015.9 |
| 20260508043157 | 42 | 248 | 1.0 | 2.0 | 0.00 | 0.00 | 0.00 | 73 | 1015.9 |
| 20260508042654 | 42 | 256 | 4.0 | 4.0 | 0.00 | 0.00 | 0.00 | 66 | 1015.9 |
| 20260508042151 | 42 | 257 | 3.0 | 3.0 | 0.00 | 0.00 | 0.00 | 70 | 1015.8 |
| 20260508041647 | 40 | 259 | 2.0 | 3.0 | 0.00 | 0.00 | 0.00 | 73 | 1015.6 |
| 20260508041144 | 40 | 292 | 0.0 | 1.0 | 0.00 | 0.00 | 0.00 | 77 | 1015.8 |
| 20260508040641 | 40 | 320 | 0.0 | 1.0 | 0.00 | 0.00 | 0.00 | 80 | 1015.7 |
| 20260508040138 | 42 | 257 | 0.0 | 1.0 | 0.00 | 0.00 | 0.00 | 78 | 1015.5 |
| 20260508035636 | 40 | 255 | 1.0 | 2.0 | 0.00 | 0.00 | 0.00 | 71 | 1015.7 |
| 20260508035133 | 42 | 254 | 0.0 | 1.0 | 0.00 | 0.00 | 0.00 | 76 | 1015.7 |
| 20260508034630 | 44 | 206 | 1.0 | 1.0 | 0.00 | 0.00 | 0.00 | 70 | 1015.4 |
| 20260508034126 | 42 | 313 | 0.0 | 1.0 | 0.00 | 0.00 | 0.00 | 73 | 1015.5 |
| 20260508033624 | 43 | 253 | 0.0 | 0.0 | 0.00 | 0.00 | 0.00 | 68 | 1015.4 |
| 20260508033122 | 44 | 248 | 0.0 | 1.0 | 0.00 | 0.00 | 0.00 | 71 | 1015.3 |
| 20260508032618 | 43 | 272 | 0.0 | 0.0 | 0.00 | 0.00 | 0.00 | 69 | 1015.4 |
| 20260508032116 | 44 | 262 | 0.0 | 2.0 | 0.00 | 0.00 | 0.00 | 64 | 1015.3 |
| 20260508031613 | 43 | 295 | 3.0 | 3.0 | 0.00 | 0.00 | 0.00 | 71 | 1015.3 |
| 20260508031109 | 44 | 338 | 0.0 | 2.0 | 0.00 | 0.00 | 0.00 | 72 | 1015.3 |
| 20260508030605 | 44 | 270 | 2.0 | 3.0 | 0.00 | 0.00 | 0.00 | 65 | 1015.2 |
| 20260508030103 | 44 | 264 | 3.0 | 3.0 | 0.00 | 0.00 | 0.00 | 72 | 1015.2 |
| 20260508025559 | 45 | 259 | 3.0 | 4.0 | 0.00 | 0.00 | 0.00 | 66 | 1015.1 |
| 20260508025056 | 44 | 247 | 1.0 | 3.0 | 0.00 | 0.00 | 0.00 | 68 | 1014.9 |
| 20260508024552 | 44 | 269 | 2.0 | 3.0 | 0.00 | 0.00 | 0.00 | 74 | 1014.7 |
| 20260508024049 | 44 | 245 | 3.0 | 3.0 | 0.00 | 0.00 | 0.00 | 71 | 1015.0 |
| 20260508023546 | 44 | 262 | 2.0 | 3.0 | 0.00 | 0.00 | 0.00 | 76 | 1014.7 |
| 20260508023043 | 45 | 278 | 1.0 | 3.0 | 0.00 | 0.00 | 0.00 | 70 | 1014.6 |
| 20260508022539 | 45 | 241 | 3.0 | 3.0 | 0.00 | 0.00 | 0.00 | 69 | 1014.7 |
| 20260508022037 | 44 | 248 | 4.0 | 4.0 | 0.00 | 0.00 | 0.00 | 74 | 1014.7 |
| 20260508021532 | 46 | 255 | 3.0 | 3.0 | 0.00 | 0.00 | 0.00 | 72 | 1014.5 |
| 20260508021028 | 45 | 283 | 3.0 | 3.0 | 0.00 | 0.00 | 0.00 | 64 | 1014.7 |
| 20260508020526 | 44 | 247 | 4.0 | 4.0 | 0.00 | 0.00 | 0.00 | 75 | 1014.4 |
| 20260508020024 | 44 | 256 | 3.0 | 4.0 | 0.00 | 0.00 | 0.00 | 75 | 1014.5 |
| 20260508015521 | 45 | 252 | 3.0 | 4.0 | 0.00 | 0.00 | 0.00 | 73 | 1014.3 |
| 20260508015017 | 45 | 244 | 1.0 | 3.0 | 0.00 | 0.00 | 0.00 | 73 | 1014.5 |
| 20260508014514 | 45 | 256 | 3.0 | 3.0 | 0.00 | 0.00 | 0.00 | 76 | 1014.3 |
| 20260508014010 | 46 | 250 | 3.0 | 3.0 | 0.00 | 0.00 | 0.00 | 70 | 1014.3 |
| 20260508013506 | 46 | 267 | 3.0 | 4.0 | 0.00 | 0.00 | 0.00 | 73 | 1014.2 |
| 20260508013004 | 46 | 265 | 3.0 | 4.0 | 0.00 | 0.00 | 0.00 | 71 | 1014.0 |
| 20260508012501 | 46 | 247 | 4.0 | 4.0 | 0.00 | 0.00 | 0.00 | 71 | 1014.0 |
| 20260508011958 | 47 | 240 | 2.0 | 3.0 | 0.00 | 0.00 | 0.00 | 69 | 1014.0 |
| 20260508011456 | 47 | 240 | 2.0 | 2.0 | 0.00 | 0.00 | 0.00 | 70 | 1014.0 |
| 20260508010953 | 48 | 246 | 2.0 | 3.0 | 0.00 | 0.00 | 0.00 | 69 | 1013.9 |
| 20260508010450 | 48 | 296 | 4.0 | 7.0 | 0.00 | 0.00 | 0.00 | 60 | 1014.0 |
| 20260508005947 | 48 | 249 | 3.0 | 4.0 | 0.00 | 0.00 | 0.00 | 68 | 1014.0 |
| 20260508005444 | 49 | 277 | 3.0 | 4.0 | 0.00 | 0.00 | 0.00 | 68 | 1013.8 |
| 20260508004941 | 48 | 248 | 3.0 | 3.0 | 0.00 | 0.00 | 0.00 | 65 | 1013.8 |
| 20260508004437 | 49 | 249 | 3.0 | 4.0 | 0.00 | 0.00 | 0.00 | 66 | 1013.8 |
| 20260508003933 | 48 | 268 | 3.0 | 3.0 | 0.00 | 0.00 | 0.00 | 64 | 1013.8 |
| 20260508003430 | 48 | 245 | 1.0 | 2.0 | 0.00 | 0.00 | 0.00 | 66 | 1013.7 |
| 20260508002928 | 48 | 258 | 1.0 | 2.0 | 0.00 | 0.00 | 0.00 | 72 | 1013.7 |
| 20260508002424 | 49 | 256 | 1.0 | 2.0 | 0.00 | 0.00 | 0.00 | 70 | 1013.5 |
| 20260508001920 | 49 | 235 | 3.0 | 3.0 | 0.00 | 0.00 | 0.00 | 64 | 1013.5 |
| 20260508001416 | 49 | 259 | 2.0 | 3.0 | 0.00 | 0.00 | 0.00 | 72 | 1013.5 |
| 20260508000913 | 50 | 184 | 2.0 | 2.0 | 0.00 | 0.00 | 0.00 | 69 | 1013.0 |
| 20260508000412 | 51 | 74 | 1.0 | 2.0 | 0.00 | 0.00 | 0.00 | 63 | 1013.2 |
| 20260507235906 | 51 | 281 | 1.0 | 1.0 | 0.00 | 0.00 | 0.00 | 63 | 1013.4 |
| 20260507235403 | 51 | 265 | 1.0 | 1.0 | 0.00 | 0.00 | 0.00 | 60 | 1013.4 |
| 20260507234900 | 52 | 293 | 1.0 | 1.0 | 0.00 | 0.00 | 0.00 | 58 | 1013.1 |
| 20260507234357 | 53 | 50 | 0.0 | 1.0 | 0.00 | 0.00 | 0.00 | 55 | 1013.1 |
| 20260507233853 | 54 | 281 | 4.0 | 6.0 | 0.00 | 0.00 | 0.00 | 61 | 1013.1 |
| 20260507233350 | 54 | 343 | 5.0 | 8.0 | 0.00 | 0.00 | 0.00 | 50 | 1013.0 |
| 20260507232849 | 53 | 42 | 0.0 | 2.0 | 0.00 | 0.00 | 0.00 | 51 | 1013.1 |
| 20260507232345 | 53 | 284 | 3.0 | 4.0 | 0.00 | 0.00 | 0.00 | 51 | 1012.9 |
| 20260507231843 | 54 | 253 | 0.0 | 2.0 | 0.00 | 0.00 | 0.00 | 51 | 1012.9 |
| 20260507231339 | 55 | 288 | 2.0 | 4.0 | 0.00 | 0.00 | 0.00 | 50 | 1012.9 |
| 20260507230835 | 56 | 145 | 3.0 | 3.0 | 0.00 | 0.00 | 0.00 | 50 | 1012.8 |
| 20260507230333 | 55 | 266 | 1.0 | 6.0 | 0.00 | 0.00 | 0.00 | 49 | 1012.6 |
| 20260507225832 | 55 | 244 | 2.0 | 2.0 | 0.00 | 0.00 | 0.00 | 49 | 1012.7 |
| 20260507225329 | 56 | 263 | 1.0 | 3.0 | 0.00 | 0.00 | 0.00 | 49 | 1012.8 |
| 20260507224825 | 56 | 329 | 4.0 | 10.0 | 0.00 | 0.00 | 0.00 | 51 | 1012.7 |
| 20260507224322 | 57 | 273 | 9.0 | 10.0 | 0.00 | 0.00 | 0.00 | 47 | 1012.8 |
| 20260507223818 | 58 | 322 | 2.0 | 4.0 | 0.00 | 0.00 | 0.00 | 49 | 1012.6 |
| 20260507223314 | 58 | 17 | 4.0 | 13.0 | 0.00 | 0.00 | 0.00 | 51 | 1012.5 |
| 20260507222812 | 59 | 22 | 5.0 | 7.0 | 0.00 | 0.00 | 0.00 | 47 | 1012.2 |
| 20260507222308 | 58 | 315 | 3.0 | 7.0 | 0.00 | 0.00 | 0.00 | 47 | 1012.4 |
| 20260507221805 | 58 | 343 | 5.0 | 7.0 | 0.00 | 0.00 | 0.00 | 47 | 1012.4 |
| 20260507221301 | 58 | 273 | 2.0 | 6.0 | 0.00 | 0.00 | 0.00 | 44 | 1012.4 |
| 20260507220757 | 57 | 27 | 8.0 | 11.0 | 0.00 | 0.00 | 0.00 | 48 | 1012.5 |
| 20260507220256 | 57 | 13 | 6.0 | 14.0 | 0.00 | 0.00 | 0.00 | 47 | 1012.4 |
| 20260507215752 | 57 | 49 | 6.0 | 9.0 | 0.00 | 0.00 | 0.00 | 48 | 1012.3 |
| 20260507215250 | 56 | 265 | 4.0 | 11.0 | 0.00 | 0.00 | 0.00 | 48 | 1012.1 |
| 20260507214746 | 56 | 256 | 2.0 | 10.0 | 0.00 | 0.00 | 0.00 | 49 | 1012.0 |
| 20260507214244 | 58 | 172 | 3.0 | 6.0 | 0.00 | 0.00 | 0.00 | 48 | 1012.0 |
| 20260507213738 | 58 | 271 | 1.0 | 9.0 | 0.00 | 0.00 | 0.00 | 51 | 1012.0 |
| 20260507213236 | 58 | 309 | 6.0 | 9.0 | 0.00 | 0.00 | 0.00 | 47 | 1011.9 |
| 20260507212732 | 59 | 292 | 3.0 | 4.0 | 0.00 | 0.00 | 0.00 | 48 | 1011.6 |
| 20260507212229 | 57 | 308 | 1.0 | 8.0 | 0.00 | 0.00 | 0.00 | 49 | 1011.9 |
| 20260507211726 | 57 | 349 | 5.0 | 7.0 | 0.00 | 0.00 | 0.00 | 51 | 1011.6 |
| 20260507211222 | 58 | 237 | 4.0 | 8.0 | 0.00 | 0.00 | 0.00 | 48 | 1012.0 |
| 20260507210719 | 57 | 285 | 5.0 | 14.0 | 0.00 | 0.00 | 0.00 | 52 | 1011.5 |
| 20260507210216 | 59 | 307 | 4.0 | 8.0 | 0.00 | 0.00 | 0.00 | 51 | 1011.5 |
| 20260507205712 | 59 | 288 | 4.0 | 9.0 | 0.00 | 0.00 | 0.00 | 50 | 1011.5 |
| 20260507205209 | 59 | 167 | 3.0 | 15.0 | 0.00 | 0.00 | 0.00 | 51 | 1011.4 |
| 20260507204705 | 58 | 284 | 5.0 | 15.0 | 0.00 | 0.00 | 0.00 | 51 | 1011.8 |
| 20260507204203 | 59 | 341 | 10.0 | 13.0 | 0.00 | 0.00 | 0.00 | 51 | 1011.6 |
| 20260507203701 | 59 | 280 | 1.0 | 1.0 | 0.00 | 0.00 | 0.00 | 55 | 1011.3 |
| 20260507203158 | 58 | 256 | 1.0 | 9.0 | 0.00 | 0.00 | 0.00 | 50 | 1011.5 |
| 20260507202654 | 58 | 300 | 7.0 | 17.0 | 0.00 | 0.00 | 0.00 | 49 | 1011.4 |
| 20260507202150 | 60 | 34 | 9.0 | 10.0 | 0.00 | 0.00 | 0.00 | 54 | 1011.4 |
| 20260507201645 | 60 | 254 | 4.0 | 6.0 | 0.00 | 0.00 | 0.00 | 51 | 1011.3 |
| 20260507201142 | 59 | 315 | 4.0 | 14.0 | 0.00 | 0.00 | 0.00 | 51 | 1011.3 |
| 20260507200638 | 60 | 170 | 2.0 | 3.0 | 0.00 | 0.00 | 0.00 | 50 | 1011.2 |
| 20260507200134 | 59 | 328 | 4.0 | 13.0 | 0.00 | 0.00 | 0.00 | 52 | 1011.5 |
| 20260507195631 | 59 | 354 | 3.0 | 13.0 | 0.00 | 0.00 | 0.00 | 48 | 1011.2 |
| 20260507195128 | 59 | 258 | 2.0 | 13.0 | 0.00 | 0.00 | 0.00 | 53 | 1011.6 |
| 20260507194625 | 59 | 19 | 5.0 | 16.0 | 0.00 | 0.00 | 0.00 | 50 | 1011.5 |
| 20260507194120 | 58 | 277 | 4.0 | 9.0 | 0.00 | 0.00 | 0.00 | 55 | 1011.6 |
| 20260507193618 | 58 | 213 | 4.0 | 10.0 | 0.00 | 0.00 | 0.00 | 53 | 1011.4 |
| 20260507193115 | 58 | 43 | 11.0 | 14.0 | 0.00 | 0.00 | 0.00 | 53 | 1011.4 |
| 20260507192611 | 58 | 176 | 4.0 | 18.0 | 0.00 | 0.00 | 0.00 | 50 | 1011.8 |
| 20260507192108 | 57 | 36 | 5.0 | 9.0 | 0.00 | 0.00 | 0.00 | 53 | 1011.9 |
| 20260507191603 | 57 | 294 | 4.0 | 14.0 | 0.00 | 0.00 | 0.00 | 55 | 1012.1 |
| 20260507191100 | 58 | 5 | 8.0 | 14.0 | 0.00 | 0.00 | 0.00 | 59 | 1012.1 |
| 20260507190558 | 59 | 227 | 3.0 | 4.0 | 0.00 | 0.00 | 0.00 | 53 | 1011.9 |
| 20260507190056 | 58 | 309 | 4.0 | 14.0 | 0.00 | 0.00 | 0.00 | 54 | 1011.8 |
| 20260507185555 | 58 | 324 | 4.0 | 10.0 | 0.00 | 0.00 | 0.00 | 53 | 1012.0 |
| 20260507185050 | 58 | 72 | 3.0 | 7.0 | 0.00 | 0.00 | 0.00 | 56 | 1012.0 |
| 20260507184549 | 59 | 341 | 8.0 | 11.0 | 0.00 | 0.00 | 0.00 | 61 | 1012.1 |
| 20260507184046 | 58 | 316 | 1.0 | 3.0 | 0.00 | 0.00 | 0.00 | 55 | 1012.1 |
| 20260507183542 | 58 | 55 | 2.0 | 10.0 | 0.00 | 0.00 | 0.00 | 56 | 1012.0 |
| 20260507183040 | 58 | 47 | 11.0 | 13.0 | 0.00 | 0.00 | 0.00 | 59 | 1011.9 |
| 20260507182536 | 60 | 352 | 4.0 | 8.0 | 0.00 | 0.00 | 0.00 | 60 | 1011.8 |
| 20260507182031 | 60 | 327 | 5.0 | 9.0 | 0.00 | 0.00 | 0.00 | 59 | 1011.9 |
| 20260507181529 | 61 | 74 | 1.0 | 2.0 | 0.00 | 0.00 | 0.00 | 64 | 1011.8 |
| 20260507181025 | 59 | 206 | 0.0 | 3.0 | 0.00 | 0.00 | 0.00 | 67 | 1011.9 |
| 20260507180521 | 57 | 10 | 4.0 | 8.0 | 0.00 | 0.00 | 0.00 | 60 | 1012.0 |
| 20260507180018 | 57 | 56 | 2.0 | 4.0 | 0.00 | 0.00 | 0.00 | 65 | 1012.0 |
| 20260507175514 | 59 | 110 | 2.0 | 3.0 | 0.00 | 0.00 | 0.00 | 60 | 1012.1 |
| 20260507175012 | 59 | 155 | 2.0 | 4.0 | 0.00 | 0.00 | 0.00 | 59 | 1012.1 |
| 20260507174509 | 58 | 46 | 2.0 | 4.0 | 0.00 | 0.00 | 0.00 | 65 | 1012.1 |
| 20260507174007 | 58 | 346 | 6.0 | 11.0 | 0.00 | 0.00 | 0.00 | 63 | 1012.1 |
| 20260507173503 | 58 | 252 | 1.0 | 1.0 | 0.00 | 0.00 | 0.00 | 65 | 1012.2 |
| 20260507173001 | 57 | 295 | 6.0 | 11.0 | 0.00 | 0.00 | 0.00 | 63 | 1012.3 |
| 20260507172457 | 56 | 333 | 4.0 | 10.0 | 0.00 | 0.00 | 0.00 | 61 | 1012.3 |
| 20260507171954 | 56 | 307 | 5.0 | 8.0 | 0.00 | 0.00 | 0.00 | 64 | 1012.3 |
| 20260507171449 | 57 | 294 | 5.0 | 10.0 | 0.00 | 0.00 | 0.00 | 62 | 1012.4 |
| 20260507170947 | 57 | 24 | 3.0 | 8.0 | 0.00 | 0.00 | 0.00 | 64 | 1012.3 |
| 20260507170443 | 56 | 26 | 4.0 | 6.0 | 0.00 | 0.00 | 0.00 | 64 | 1012.5 |
| 20260507165940 | 56 | 359 | 4.0 | 6.0 | 0.00 | 0.00 | 0.00 | 67 | 1012.6 |
| 20260507165436 | 56 | 35 | 2.0 | 10.0 | 0.00 | 0.00 | 0.00 | 61 | 1012.5 |
| 20260507164931 | 56 | 303 | 1.0 | 8.0 | 0.00 | 0.00 | 0.00 | 60 | 1012.4 |
| 20260507164429 | 56 | 279 | 5.0 | 8.0 | 0.00 | 0.00 | 0.00 | 63 | 1012.2 |
| 20260507163925 | 57 | 22 | 1.0 | 4.0 | 0.00 | 0.00 | 0.00 | 60 | 1012.6 |
| 20260507163423 | 58 | 132 | 1.0 | 3.0 | 0.00 | 0.00 | 0.00 | 60 | 1012.5 |
| 20260507162920 | 58 | 171 | 2.0 | 2.0 | 0.00 | 0.00 | 0.00 | 65 | 1012.6 |
| 20260507162415 | 56 | 151 | 2.0 | 3.0 | 0.00 | 0.00 | 0.00 | 59 | 1012.6 |
| 20260507161913 | 57 | 224 | 0.0 | 0.0 | 0.00 | 0.00 | 0.00 | 60 | 1013.0 |
| 20260507161409 | 55 | 214 | 0.0 | 2.0 | 0.00 | 0.00 | 0.00 | 60 | 1012.9 |
| 20260507160906 | 56 | 270 | 3.0 | 4.0 | 0.00 | 0.00 | 0.00 | 64 | 1013.0 |
| 20260507160401 | 57 | 60 | 2.0 | 3.0 | 0.00 | 0.00 | 0.00 | 64 | 1013.1 |
| 20260507155858 | 55 | 307 | 2.0 | 3.0 | 0.00 | 0.00 | 0.00 | 61 | 1013.1 |
| 20260507155354 | 54 | 41 | 2.0 | 3.0 | 0.00 | 0.00 | 0.00 | 63 | 1013.2 |
| 20260507154851 | 54 | 72 | 2.0 | 2.0 | 0.00 | 0.00 | 0.00 | 67 | 1013.1 |
| 20260507154348 | 54 | 66 | 1.0 | 3.0 | 0.00 | 0.00 | 0.00 | 66 | 1013.0 |
| 20260507153845 | 53 | 13 | 2.0 | 3.0 | 0.00 | 0.00 | 0.00 | 65 | 1013.2 |
| 20260507153341 | 53 | 10 | 0.0 | 2.0 | 0.00 | 0.00 | 0.00 | 65 | 1013.4 |
| 20260507152838 | 53 | 59 | 4.0 | 4.0 | 0.00 | 0.00 | 0.00 | 67 | 1013.2 |
| 20260507152334 | 53 | 5 | 1.0 | 6.0 | 0.00 | 0.00 | 0.00 | 67 | 1013.4 |
| 20260507151830 | 53 | 40 | 2.0 | 4.0 | 0.00 | 0.00 | 0.00 | 68 | 1013.2 |
| 20260507151327 | 54 | 80 | 3.0 | 3.0 | 0.00 | 0.00 | 0.00 | 73 | 1013.4 |
| 20260507150824 | 53 | 59 | 3.0 | 6.0 | 0.00 | 0.00 | 0.00 | 67 | 1013.6 |
| 20260507150320 | 53 | 83 | 2.0 | 6.0 | 0.00 | 0.00 | 0.00 | 70 | 1013.6 |
| 20260507145816 | 53 | 56 | 2.0 | 3.0 | 0.00 | 0.00 | 0.00 | 68 | 1013.7 |
| 20260507145313 | 52 | 325 | 2.0 | 3.0 | 0.00 | 0.00 | 0.00 | 67 | 1013.6 |
| 20260507144810 | 53 | 38 | 4.0 | 4.0 | 0.00 | 0.00 | 0.00 | 71 | 1013.7 |
| 20260507144307 | 54 | 74 | 3.0 | 4.0 | 0.00 | 0.00 | 0.00 | 69 | 1013.5 |
| 20260507143803 | 52 | 34 | 1.0 | 6.0 | 0.00 | 0.00 | 0.00 | 73 | 1013.5 |
| 20260507143301 | 52 | 82 | 0.0 | 4.0 | 0.00 | 0.00 | 0.00 | 69 | 1013.5 |
| 20260507142757 | 51 | 140 | 0.0 | 2.0 | 0.00 | 0.00 | 0.00 | 70 | 1013.7 |
| 20260507142254 | 51 | 32 | 1.0 | 2.0 | 0.00 | 0.00 | 0.00 | 69 | 1013.8 |
| 20260507141750 | 51 | 40 | 4.0 | 6.0 | 0.00 | 0.00 | 0.00 | 72 | 1013.7 |
| 20260507141247 | 51 | 26 | 4.0 | 6.0 | 0.00 | 0.00 | 0.00 | 74 | 1013.8 |
| 20260507140743 | 51 | 5 | 3.0 | 6.0 | 0.00 | 0.00 | 0.00 | 74 | 1014.0 |
| 20260507140241 | 50 | 28 | 5.0 | 6.0 | 0.00 | 0.00 | 0.00 | 73 | 1014.2 |
| 20260507135738 | 50 | 15 | 1.0 | 4.0 | 0.00 | 0.00 | 0.00 | 72 | 1014.0 |
| 20260507135235 | 50 | 10 | 2.0 | 4.0 | 0.00 | 0.00 | 0.00 | 73 | 1014.2 |
| 20260507134731 | 49 | 11 | 3.0 | 7.0 | 0.00 | 0.00 | 0.00 | 73 | 1014.4 |
| 20260507134228 | 49 | 26 | 6.0 | 7.0 | 0.00 | 0.00 | 0.00 | 75 | 1014.2 |
| 20260507133724 | 49 | 332 | 5.0 | 7.0 | 0.00 | 0.00 | 0.00 | 73 | 1014.3 |
| 20260507133221 | 49 | 18 | 2.0 | 7.0 | 0.00 | 0.00 | 0.00 | 74 | 1014.3 |
| 20260507132718 | 49 | 24 | 3.0 | 4.0 | 0.00 | 0.00 | 0.00 | 73 | 1014.2 |
| 20260507132215 | 49 | 28 | 2.0 | 6.0 | 0.00 | 0.00 | 0.00 | 75 | 1014.2 |
| 20260507131711 | 49 | 9 | 5.0 | 6.0 | 0.00 | 0.00 | 0.00 | 73 | 1014.3 |
| 20260507131209 | 49 | 6 | 2.0 | 3.0 | 0.00 | 0.00 | 0.00 | 75 | 1014.3 |
| 20260507130705 | 49 | 359 | 1.0 | 2.0 | 0.00 | 0.00 | 0.00 | 74 | 1014.6 |
| 20260507130203 | 49 | 323 | 3.0 | 6.0 | 0.00 | 0.00 | 0.00 | 74 | 1014.2 |
| 20260507125702 | 49 | 351 | 4.0 | 8.0 | 0.00 | 0.00 | 0.00 | 77 | 1014.2 |
| 20260507125159 | 49 | 330 | 5.0 | 7.0 | 0.00 | 0.00 | 0.00 | 77 | 1014.3 |
| 20260507124655 | 49 | 326 | 4.0 | 10.0 | 0.00 | 0.00 | 0.00 | 77 | 1014.3 |
| 20260507124153 | 49 | 322 | 4.0 | 4.0 | 0.00 | 0.00 | 0.00 | 81 | 1014.4 |
| 20260507123651 | 49 | 275 | 1.0 | 3.0 | 0.00 | 0.00 | 0.00 | 83 | 1014.3 |
| 20260507123148 | 49 | 314 | 2.0 | 2.0 | 0.00 | 0.00 | 0.00 | 83 | 1014.2 |
| 20260507122643 | 49 | 0 | 0.0 | 2.0 | 0.00 | 0.00 | 0.00 | 82 | 1014.2 |
| 20260507122139 | 48 | 35 | 2.0 | 6.0 | 0.00 | 0.00 | 0.00 | 84 | 1014.2 |
| 20260507121635 | 49 | 43 | 3.0 | 4.0 | 0.00 | 0.00 | 0.00 | 83 | 1014.1 |
| 20260507121131 | 49 | 63 | 3.0 | 8.0 | 0.00 | 0.00 | 0.00 | 84 | 1014.1 |
| 20260507120627 | 49 | 16 | 4.0 | 6.0 | 0.00 | 0.00 | 0.00 | 84 | 1014.1 |
| 20260507120124 | 49 | 350 | 5.0 | 8.0 | 0.00 | 0.00 | 0.00 | 83 | 1013.8 |
| 20260507115621 | 49 | 334 | 4.0 | 11.0 | 0.00 | 0.00 | 0.00 | 85 | 1013.9 |
| 20260507115116 | 49 | 334 | 6.0 | 9.0 | 0.00 | 0.00 | 0.00 | 83 | 1014.1 |
| 20260507114613 | 49 | 324 | 4.0 | 7.0 | 0.00 | 0.00 | 0.00 | 83 | 1013.8 |
| 20260507114110 | 49 | 323 | 2.0 | 4.0 | 0.00 | 0.00 | 0.00 | 85 | 1013.6 |
| 20260507113607 | 49 | 310 | 4.0 | 6.0 | 0.00 | 0.00 | 0.00 | 85 | 1013.6 |
| 20260507113104 | 49 | 342 | 2.0 | 6.0 | 0.00 | 0.00 | 0.00 | 85 | 1013.6 |
| 20260507112602 | 49 | 320 | 4.0 | 4.0 | 0.00 | 0.00 | 0.00 | 85 | 1013.6 |
| 20260507112058 | 49 | 359 | 2.0 | 6.0 | 0.00 | 0.00 | 0.00 | 85 | 1013.4 |
| 20260507111555 | 49 | 291 | 3.0 | 4.0 | 0.00 | 0.00 | 0.00 | 86 | 1013.5 |
| 20260507111052 | 49 | 298 | 1.0 | 6.0 | 0.00 | 0.00 | 0.00 | 86 | 1013.4 |
| 20260507110548 | 49 | 352 | 3.0 | 6.0 | 0.00 | 0.00 | 0.00 | 86 | 1013.5 |
| 20260507110045 | 50 | 309 | 4.0 | 6.0 | 0.00 | 0.00 | 0.00 | 86 | 1013.5 |
| 20260507105542 | 50 | 294 | 3.0 | 6.0 | 0.00 | 0.00 | 0.00 | 85 | 1013.1 |
| 20260507105038 | 50 | 346 | 2.0 | 4.0 | 0.00 | 0.00 | 0.00 | 88 | 1013.1 |
| 20260507104536 | 50 | 321 | 4.0 | 7.0 | 0.00 | 0.00 | 0.00 | 87 | 1013.1 |
| 20260507104032 | 50 | 334 | 4.0 | 4.0 | 0.00 | 0.00 | 0.00 | 88 | 1013.2 |
| 20260507103528 | 50 | 317 | 3.0 | 6.0 | 0.00 | 0.00 | 0.00 | 87 | 1013.1 |
| 20260507103025 | 50 | 5 | 3.0 | 4.0 | 0.00 | 0.00 | 0.00 | 89 | 1013.1 |
| 20260507102522 | 50 | 11 | 0.0 | 1.0 | 0.00 | 0.00 | 0.00 | 90 | 1012.8 |
| 20260507102017 | 50 | 332 | 2.0 | 3.0 | 0.00 | 0.00 | 0.00 | 88 | 1013.0 |
| 20260507101513 | 50 | 23 | 1.0 | 4.0 | 0.00 | 0.00 | 0.00 | 88 | 1012.7 |
| 20260507101010 | 50 | 25 | 1.0 | 2.0 | 0.00 | 0.00 | 0.00 | 91 | 1012.9 |
| 20260507100507 | 50 | 323 | 1.0 | 2.0 | 0.00 | 0.00 | 0.00 | 90 | 1012.8 |
| 20260507100005 | 50 | 248 | 0.0 | 2.0 | 0.00 | 0.00 | 0.00 | 91 | 1012.9 |
| 20260507095503 | 50 | 267 | 0.0 | 1.0 | 0.00 | 0.00 | 0.00 | 91 | 1012.9 |
| 20260507094959 | 50 | 267 | 0.0 | 1.0 | 0.00 | 0.00 | 0.00 | 91 | 1012.8 |
| 20260507094455 | 50 | 230 | 1.0 | 1.0 | 0.00 | 0.00 | 0.00 | 90 | 1012.9 |
| 20260507093953 | 50 | 278 | 2.0 | 3.0 | 0.00 | 0.00 | 0.00 | 90 | 1013.0 |
| 20260507093450 | 50 | 311 | 2.0 | 3.0 | 0.00 | 0.00 | 0.00 | 91 | 1012.9 |
| 20260507092948 | 51 | 274 | 1.0 | 2.0 | 0.00 | 0.00 | 0.00 | 91 | 1013.0 |
| 20260507092444 | 51 | 296 | 2.0 | 3.0 | 0.00 | 0.00 | 0.00 | 90 | 1012.8 |
| 20260507091941 | 51 | 264 | 3.0 | 4.0 | 0.00 | 0.00 | 0.00 | 90 | 1013.0 |
| 20260507091438 | 51 | 280 | 1.0 | 3.0 | 0.00 | 0.00 | 0.00 | 91 | 1012.9 |
| 20260507090934 | 51 | 267 | 0.0 | 1.0 | 0.00 | 0.00 | 0.00 | 90 | 1012.9 |
| 20260507090430 | 51 | 255 | 0.0 | 2.0 | 0.00 | 0.00 | 0.00 | 91 | 1013.2 |
| 20260507085927 | 51 | 295 | 2.0 | 2.0 | 0.00 | 0.00 | 0.00 | 90 | 1013.2 |
| 20260507085424 | 51 | 271 | 0.0 | 0.0 | 0.00 | 0.00 | 0.00 | 93 | 1012.9 |
| 20260507084921 | 51 | 205 | 1.0 | 2.0 | 0.00 | 0.00 | 0.00 | 90 | 1012.9 |
| 20260507084418 | 51 | 262 | 0.0 | 1.0 | 0.00 | 0.00 | 0.00 | 92 | 1012.7 |
| 20260507083915 | 51 | 272 | 0.0 | 0.0 | 0.00 | 0.00 | 0.00 | 95 | 1013.0 |
| 20260507083411 | 51 | 278 | 0.0 | 1.0 | 0.00 | 0.00 | 0.00 | 94 | 1013.1 |
| 20260507082907 | 51 | 297 | 0.0 | 0.0 | 0.00 | 0.00 | 0.00 | 96 | 1012.9 |
| 20260507082403 | 51 | 297 | 0.0 | 0.0 | 0.00 | 0.00 | 0.00 | 96 | 1012.8 |
| 20260507081900 | 51 | 297 | 0.0 | 0.0 | 0.00 | 0.00 | 0.00 | 96 | 1012.9 |
| 20260507081356 | 51 | 297 | 0.0 | 0.0 | 0.00 | 0.00 | 0.00 | 95 | 1012.9 |
| 20260507080853 | 51 | 297 | 0.0 | 0.0 | 0.00 | 0.00 | 0.00 | 95 | 1012.9 |
| 20260507080349 | 51 | 297 | 0.0 | 0.0 | 0.00 | 0.00 | 0.00 | 95 | 1012.7 |
| 20260507075845 | 51 | 297 | 0.0 | 0.0 | 0.00 | 0.00 | 0.00 | 92 | 1012.7 |
| 20260507075341 | 51 | 297 | 0.0 | 0.0 | 0.00 | 0.00 | 0.00 | 93 | 1012.4 |
| 20260507074837 | 51 | 297 | 0.0 | 0.0 | 0.00 | 0.00 | 0.00 | 94 | 1012.7 |
| 20260507074335 | 51 | 297 | 0.0 | 1.0 | 0.00 | 0.00 | 0.00 | 94 | 1012.8 |
| 20260507073832 | 51 | 297 | 0.0 | 1.0 | 0.00 | 0.00 | 0.00 | 94 | 1013.0 |
| 20260507073329 | 51 | 298 | 0.0 | 1.0 | 0.00 | 0.00 | 0.00 | 92 | 1012.9 |